Hilton Head Island, SC

7:59 PM EDT on June 02, 2015 (GMT -0400)
ZipLine Hilton Head | | Change Station
CLOSE
Current Station
Personal Weather Station
Location: Hilton Head Island, SC
Elevation: 46 ft
Nearby Weather Stations

Elev 46 ft 32.19 °N, 80.76 °W | Updated 10 seconds ago

Overcast
Overcast
77.5 °F
Feels Like 79 °F
N
1.8
Wind Variable Wind from SSE
Gusts 2.5 mph

Today
High -- | Low -- °F
--% Chance of Precip.
Yesterday
High -- | Low -- °F
Precip. -- in
6:17 AM 8:25 PM
Full, 100% visible
Pressure 29.96 in
Visibility 10.0 miles
Clouds Few 1800 ft
Mostly Cloudy 5000 ft
Heat Index 79 °F
Dew Point 64 °F
Humidity 62%
Rainfall 0.04 in
Snow Depth Not available.
UV 0 out of 12
Pollen .80 out of 12
Air Quality Not available.
Flu Activity Local Activity
METAR KHXD 022350Z 00000KT 10SM FEW018 BKN050 24/21 A2996 RMK LTG DSNT N - NE AND S

More Conditions Fewer Conditions

Pressure 29.96 in
Visibility 10.0 miles
Clouds Few 1800 ft
Mostly Cloudy 5000 ft
Heat Index 79 °F
Dew Point 64 °F
Humidity 62%
Rainfall 0.04 in
Snow Depth Not available.
UV 0 out of 12
Pollen .80 out of 12
Air Quality Not available.
Flu Activity Local Activity
METAR KHXD 022350Z 00000KT 10SM FEW018 BKN050 24/21 A2996 RMK LTG DSNT N - NE AND S

More Conditions Fewer Conditions

10-Day Weather Forecast

×

Almanac

Astronomy

Jun. 02, 2015 Rise Set
Actual Time
Civil Twilight
Nautical Twilight
Astronomical Twilight
Moon
Length of Visible Light
Length of Day
Tomorrow will be .
, % of the Moon is Illuminated

Today's Extremes

State Highs State Lows

Community

WunderPhotos

Upload Photos

1,826,057 photos uploaded!

WunderBlogs® & News

Nearby

Air Quality

  Air Quality AQ Index Pollutant
Not available.

Snow Depth

Station Depth Elevation

Earthquake Activity

City Distance Mag. Time & Date
Minimum magnitude displayed is 2.5.

Coastal Water Temperatures

Place Temperature

Stations

Nearby Weather Stations

Station Location Temp. Windchill Dew Point Humidity Wind Precip. Elev Updated Type